Terminal Aerodrome Forecast
Issued by NWS

Home | Current Version | Previous Version | Graphics & Text | Print | Product List | Glossary On
Versions: 1 2 3 4 5 6 7 8 9 10 11 12 13 14
000
FTUS43 KUNR 252300
TAFGCC
TAF
KGCC 252320Z 2600/2624 36015KT 1 1/2SM -SN SCT008 OVC025
      TEMPO 2600/2604 5SM -SN BKN008
     FM260400 01010KT P6SM OVC006
      TEMPO 2610/2614 1SM BR=

USA.gov is the U.S. government's official web portal to all federal, state and local government web resources and services.